createdAt,value
2023-01-06T00:01:20.500Z,5.00
2023-01-06T00:03:53.424Z,5.00
2023-01-06T00:06:27.297Z,5.37
2023-01-06T00:08:55.475Z,5.53
2023-01-06T00:11:25.043Z,5.00
2023-01-06T00:13:51.858Z,4.67
2023-01-06T00:16:20.417Z,4.50
2023-01-06T00:18:49.444Z,5.23
2023-01-06T00:21:16.501Z,5.73
2023-01-06T00:23:43.376Z,5.90
2023-01-06T00:26:10.477Z,4.53
2023-01-06T00:28:37.482Z,5.37
2023-01-06T00:31:14.767Z,4.70
2023-01-06T00:33:42.125Z,6.20
2023-01-06T00:36:09.838Z,6.50
2023-01-06T00:38:37.074Z,5.03
2023-01-06T00:41:32.954Z,5.03
2023-01-06T00:44:00.125Z,4.83
2023-01-06T00:46:29.473Z,5.20
2023-01-06T00:49:05.008Z,4.83
2023-01-06T00:51:35.528Z,4.83
2023-01-06T00:54:02.433Z,4.00
2023-01-06T00:56:29.302Z,4.30
2023-01-06T00:58:56.092Z,4.40
2023-01-06T01:01:23.090Z,4.43
2023-01-06T01:03:50.026Z,7.73
2023-01-06T01:06:19.139Z,4.80
2023-01-06T01:08:45.978Z,6.50
2023-01-06T01:11:32.976Z,4.33
2023-01-06T01:13:59.822Z,4.50
2023-01-06T01:16:29.184Z,4.50
2023-01-06T01:18:56.082Z,4.93
2023-01-06T01:21:22.914Z,5.53
2023-01-06T01:23:49.702Z,5.33
2023-01-06T01:26:16.482Z,5.07
2023-01-06T01:28:43.281Z,4.97
2023-01-06T01:31:10.475Z,7.53
2023-01-06T01:33:38.121Z,4.17
2023-01-06T01:36:13.462Z,6.20
2023-01-06T01:38:40.272Z,4.30
2023-01-06T01:41:10.244Z,5.73
2023-01-06T01:43:57.445Z,5.73
2023-01-06T01:46:41.377Z,9.03
2023-01-06T01:49:19.549Z,5.60
2023-01-06T01:51:49.584Z,5.33
2023-01-06T01:54:19.606Z,6.47
2023-01-06T01:56:58.286Z,5.27
2023-01-06T01:59:29.574Z,4.90
2023-01-06T02:01:56.616Z,8.40
2023-01-06T02:04:26.582Z,8.37
2023-01-06T02:06:53.394Z,6.53
2023-01-06T02:09:55.498Z,6.50
2023-01-06T02:12:22.294Z,5.70
2023-01-06T02:14:49.260Z,5.57
2023-01-06T02:17:39.222Z,5.83
2023-01-06T02:20:42.920Z,6.33
2023-01-06T02:23:36.298Z,5.73
2023-01-06T02:26:27.407Z,6.53
2023-01-06T02:29:10.113Z,5.30
2023-01-06T02:32:14.587Z,6.93
2023-01-06T02:35:02.466Z,7.10
2023-01-06T02:37:31.352Z,5.13
2023-01-06T02:40:18.542Z,6.17
2023-01-06T02:43:01.371Z,6.77
2023-01-06T02:45:28.124Z,5.47
2023-01-06T02:48:21.513Z,5.10
2023-01-06T02:50:51.054Z,5.23
2023-01-06T02:53:42.110Z,4.77
2023-01-06T02:56:08.888Z,7.27
2023-01-06T02:58:35.689Z,6.57
2023-01-06T03:01:41.568Z,5.77
2023-01-06T03:04:11.725Z,5.23
2023-01-06T03:06:44.748Z,6.67
2023-01-06T03:09:13.925Z,4.17
2023-01-06T03:11:40.904Z,5.20
2023-01-06T03:14:39.236Z,4.57
2023-01-06T03:17:08.318Z,4.30
2023-01-06T03:19:37.458Z,5.37
2023-01-06T03:22:04.278Z,5.77
2023-01-06T03:24:31.187Z,3.80
2023-01-06T03:27:00.505Z,5.53
2023-01-06T03:29:29.441Z,3.77
2023-01-06T03:32:03.658Z,3.73
2023-01-06T03:34:55.834Z,4.20
2023-01-06T03:37:56.170Z,4.70
2023-01-06T03:40:39.734Z,3.87
2023-01-06T03:43:17.643Z,4.00
2023-01-06T03:46:08.961Z,4.67
2023-01-06T03:48:38.747Z,3.93
2023-01-06T03:51:23.441Z,4.43
2023-01-06T03:54:10.989Z,3.60
2023-01-06T03:56:47.486Z,4.10
2023-01-06T03:59:17.451Z,4.70
2023-01-06T04:01:46.484Z,4.67
2023-01-06T04:04:15.488Z,6.17
2023-01-06T04:06:42.254Z,5.33
2023-01-06T04:09:09.073Z,5.80
2023-01-06T04:11:54.166Z,5.20
2023-01-06T04:14:23.340Z,7.10
2023-01-06T04:16:50.285Z,4.70
2023-01-06T04:19:17.115Z,5.17
2023-01-06T04:21:43.901Z,5.30
2023-01-06T04:24:12.871Z,5.23
2023-01-06T04:26:39.649Z,5.73
2023-01-06T04:29:06.396Z,5.80
2023-01-06T04:31:38.127Z,5.40
2023-01-06T04:34:04.890Z,5.30
2023-01-06T04:36:31.803Z,6.53
2023-01-06T04:38:58.623Z,5.20
2023-01-06T04:41:25.427Z,6.20
2023-01-06T04:43:52.165Z,6.07
2023-01-06T04:46:21.457Z,5.17
2023-01-06T04:48:50.469Z,5.40
2023-01-06T04:51:17.247Z,4.33
2023-01-06T04:53:48.461Z,5.87
2023-01-06T04:56:15.666Z,4.87
2023-01-06T04:58:42.428Z,5.10
2023-01-06T05:01:12.823Z,5.10
2023-01-06T05:03:40.280Z,5.63
2023-01-06T05:06:11.880Z,5.93
2023-01-06T05:08:39.408Z,5.73
2023-01-06T05:11:10.431Z,6.00
2023-01-06T05:13:39.827Z,5.23
2023-01-06T05:16:11.311Z,4.30
2023-01-06T05:18:40.350Z,4.90
2023-01-06T05:21:11.866Z,5.80
2023-01-06T05:23:38.801Z,5.07
2023-01-06T05:26:08.136Z,5.83
2023-01-06T05:28:34.952Z,4.33
2023-01-06T05:31:02.414Z,6.17
2023-01-06T05:33:31.701Z,6.20
2023-01-06T05:36:03.130Z,5.00
2023-01-06T05:38:34.230Z,4.90
2023-01-06T05:41:01.420Z,8.57
2023-01-06T05:43:28.780Z,6.50
2023-01-06T05:45:55.850Z,7.90
2023-01-06T05:48:28.212Z,4.93
2023-01-06T05:51:02.425Z,5.93
2023-01-06T05:53:31.656Z,5.10
2023-01-06T05:56:05.573Z,6.30
2023-01-06T05:58:40.294Z,5.93
2023-01-06T06:01:07.518Z,5.80
2023-01-06T06:03:36.769Z,5.10
2023-01-06T06:06:06.948Z,5.03
2023-01-06T06:08:36.257Z,7.03
2023-01-06T06:11:07.801Z,5.87
2023-01-06T06:13:34.582Z,5.53
2023-01-06T06:16:07.832Z,5.43
2023-01-06T06:18:36.515Z,5.13
2023-01-06T06:21:04.074Z,6.13
2023-01-06T06:23:31.076Z,6.10
2023-01-06T06:25:57.907Z,5.70
2023-01-06T06:28:26.806Z,5.83
2023-01-06T06:30:55.476Z,6.47
2023-01-06T06:33:22.461Z,7.13
2023-01-06T06:35:59.068Z,6.67
2023-01-06T06:38:28.955Z,10.30
2023-01-06T06:41:02.878Z,5.57
2023-01-06T06:43:31.996Z,6.20
2023-01-06T06:45:58.807Z,6.00
2023-01-06T06:48:25.719Z,7.10
2023-01-06T06:51:04.350Z,6.87
2023-01-06T06:53:32.831Z,7.17
2023-01-06T06:55:59.615Z,7.00
2023-01-06T06:58:28.625Z,5.00
2023-01-06T07:00:55.471Z,5.73
2023-01-06T07:03:26.789Z,5.23
2023-01-06T07:05:53.551Z,6.20
2023-01-06T07:08:22.533Z,6.57
2023-01-06T07:10:52.038Z,6.73
2023-01-06T07:13:20.947Z,5.27
2023-01-06T07:15:47.729Z,6.80
2023-01-06T07:18:14.558Z,6.67
2023-01-06T07:20:47.032Z,5.93
2023-01-06T07:23:13.820Z,5.43
2023-01-06T07:25:40.554Z,6.73
2023-01-06T07:28:10.044Z,6.60
2023-01-06T07:30:37.032Z,6.87
2023-01-06T07:33:04.323Z,6.33
2023-01-06T07:35:31.122Z,5.67
2023-01-06T07:38:03.354Z,6.90
2023-01-06T07:40:30.316Z,5.90
2023-01-06T07:43:02.699Z,5.40
2023-01-06T07:45:29.847Z,7.27
2023-01-06T07:47:56.974Z,5.60
2023-01-06T07:50:26.504Z,6.73
2023-01-06T07:52:53.355Z,5.97
2023-01-06T07:55:20.378Z,5.50
2023-01-06T07:57:47.135Z,6.90
2023-01-06T08:00:14.515Z,6.30
2023-01-06T08:02:41.428Z,5.40
2023-01-06T08:05:08.410Z,5.43
2023-01-06T08:07:35.208Z,4.90
2023-01-06T08:10:04.278Z,6.57
2023-01-06T08:12:36.036Z,6.20
2023-01-06T08:15:03.346Z,5.40
2023-01-06T08:17:30.753Z,5.93
2023-01-06T08:19:57.555Z,5.07
2023-01-06T08:22:26.867Z,6.13
2023-01-06T08:24:53.605Z,5.83
2023-01-06T08:27:20.839Z,4.87
2023-01-06T08:29:50.097Z,6.00
2023-01-06T08:32:17.327Z,6.47
2023-01-06T08:34:46.520Z,6.33
2023-01-06T08:37:13.310Z,5.90
2023-01-06T08:39:42.464Z,7.13
2023-01-06T08:42:09.268Z,6.40
2023-01-06T08:44:36.064Z,6.10
2023-01-06T08:47:02.874Z,6.83
2023-01-06T08:49:29.626Z,5.83
2023-01-06T08:51:56.405Z,6.17
2023-01-06T08:54:27.931Z,5.80
2023-01-06T08:56:54.775Z,5.63
2023-01-06T08:59:23.840Z,6.17
2023-01-06T09:01:53.221Z,6.00
2023-01-06T09:04:20.135Z,7.77
2023-01-06T09:06:49.398Z,6.33
2023-01-06T09:09:16.142Z,6.73
2023-01-06T09:11:43.995Z,7.00
2023-01-06T09:14:11.705Z,5.80
2023-01-06T09:16:38.552Z,6.63
2023-01-06T09:19:05.406Z,6.83
2023-01-06T09:21:32.193Z,6.57
2023-01-06T09:23:59.027Z,4.47
2023-01-06T09:26:27.900Z,6.37
2023-01-06T09:28:54.726Z,8.23
2023-01-06T09:31:21.519Z,7.47
2023-01-06T09:33:48.623Z,4.90
2023-01-06T09:36:17.912Z,5.73
2023-01-06T09:38:44.748Z,5.33
2023-01-06T09:41:26.837Z,7.33
2023-01-06T09:44:24.703Z,5.93
2023-01-06T09:46:51.847Z,5.97
2023-01-06T09:49:40.995Z,5.77
2023-01-06T09:52:37.240Z,6.37
2023-01-06T09:55:19.327Z,7.27
2023-01-06T09:57:52.351Z,5.27
2023-01-06T10:00:39.007Z,7.50
2023-01-06T10:03:06.292Z,6.60
2023-01-06T10:05:56.791Z,8.50
2023-01-06T10:08:29.779Z,8.60
2023-01-06T10:11:13.056Z,6.33
2023-01-06T10:13:57.716Z,7.93
2023-01-06T10:16:27.648Z,6.50
2023-01-06T10:19:28.415Z,7.03
2023-01-06T10:22:24.355Z,8.20
2023-01-06T10:25:25.888Z,7.43
2023-01-06T10:28:12.362Z,6.53
2023-01-06T10:30:44.456Z,6.90
2023-01-06T10:33:33.072Z,6.50
2023-01-06T10:36:00.004Z,6.40
2023-01-06T10:38:35.692Z,6.03
2023-01-06T10:41:41.316Z,6.93
2023-01-06T10:44:10.466Z,14.73
2023-01-06T10:46:39.655Z,9.10
2023-01-06T10:49:09.876Z,7.63
2023-01-06T10:51:40.892Z,7.97
2023-01-06T10:54:10.590Z,8.23
2023-01-06T10:56:38.061Z,8.73
2023-01-06T10:59:11.579Z,9.00
2023-01-06T11:01:54.350Z,8.73
2023-01-06T11:04:21.654Z,8.70
2023-01-06T11:06:52.654Z,9.93
2023-01-06T11:09:29.250Z,9.30
2023-01-06T11:11:56.987Z,10.00
2023-01-06T11:14:31.425Z,10.83
2023-01-06T11:16:59.039Z,8.87
2023-01-06T11:19:46.217Z,8.87
2023-01-06T11:22:35.901Z,10.87
2023-01-06T11:25:03.388Z,11.83
2023-01-06T11:27:32.426Z,11.27
2023-01-06T11:29:59.451Z,10.23
2023-01-06T11:32:31.774Z,10.33
2023-01-06T11:35:00.706Z,11.00
2023-01-06T11:37:40.529Z,9.93
2023-01-06T11:40:21.596Z,10.47
2023-01-06T11:42:54.767Z,9.93
2023-01-06T11:45:41.915Z,9.57
2023-01-06T11:48:20.002Z,9.47
2023-01-06T11:50:53.243Z,9.47
2023-01-06T11:53:21.408Z,9.57
2023-01-06T11:55:56.994Z,10.50
2023-01-06T11:58:47.565Z,8.47
2023-01-06T12:01:17.434Z,9.60
2023-01-06T12:03:45.193Z,8.37
2023-01-06T12:06:47.416Z,7.63
2023-01-06T12:09:22.471Z,11.30
2023-01-06T12:11:55.699Z,9.23
2023-01-06T12:14:29.649Z,7.43
2023-01-06T12:17:02.736Z,9.33
2023-01-06T12:19:43.981Z,7.70
2023-01-06T12:22:25.156Z,8.40
2023-01-06T12:24:52.963Z,9.27
2023-01-06T12:27:35.447Z,9.77
2023-01-06T12:30:04.916Z,9.70
2023-01-06T12:32:37.724Z,10.60
2023-01-06T12:35:05.308Z,9.63
2023-01-06T12:37:35.317Z,9.10
2023-01-06T12:40:10.985Z,9.13
2023-01-06T12:43:17.552Z,9.40
2023-01-06T12:45:57.101Z,10.47
2023-01-06T12:48:33.464Z,11.80
2023-01-06T12:51:14.656Z,9.63
2023-01-06T12:54:20.529Z,10.50
2023-01-06T12:57:15.001Z,11.13
2023-01-06T13:00:03.503Z,9.03
2023-01-06T13:03:07.896Z,11.57
2023-01-06T13:05:54.846Z,12.00
2023-01-06T13:08:25.778Z,9.00
2023-01-06T13:11:12.086Z,8.83
2023-01-06T13:14:06.769Z,8.83
2023-01-06T13:16:47.622Z,10.83
2023-01-06T13:20:02.765Z,8.83
2023-01-06T13:22:50.869Z,12.23
2023-01-06T13:25:17.620Z,9.70
2023-01-06T13:27:55.653Z,10.90
2023-01-06T13:30:44.000Z,9.87
2023-01-06T13:33:47.656Z,10.03
2023-01-06T13:36:38.799Z,12.43
2023-01-06T13:39:08.466Z,11.90
2023-01-06T13:41:39.492Z,12.70
2023-01-06T13:44:13.419Z,11.63
2023-01-06T13:46:40.245Z,11.37
2023-01-06T13:49:07.327Z,12.57
2023-01-06T13:51:35.808Z,12.23
2023-01-06T13:54:03.122Z,12.57
2023-01-06T13:56:31.492Z,13.30
2023-01-06T13:59:21.291Z,12.00
2023-01-06T14:01:48.427Z,12.53
2023-01-06T14:04:35.847Z,11.43
2023-01-06T14:07:03.755Z,9.93
2023-01-06T14:09:31.056Z,13.00
2023-01-06T14:12:10.523Z,13.63
2023-01-06T14:14:38.586Z,11.33
2023-01-06T14:17:05.350Z,12.67
2023-01-06T14:19:38.955Z,12.27
2023-01-06T14:22:41.261Z,15.97
2023-01-06T14:25:08.969Z,12.13
2023-01-06T14:27:47.885Z,13.43
2023-01-06T14:30:33.873Z,11.17
2023-01-06T14:33:00.695Z,10.00
2023-01-06T14:35:30.810Z,11.87
2023-01-06T14:38:06.155Z,10.87
2023-01-06T14:40:38.871Z,11.60
2023-01-06T14:43:42.010Z,12.57
2023-01-06T14:46:18.545Z,12.67
2023-01-06T14:48:48.421Z,11.73
2023-01-06T14:51:22.274Z,13.07
2023-01-06T14:53:59.571Z,14.47
2023-01-06T14:56:29.785Z,14.23
2023-01-06T14:59:11.466Z,12.63
2023-01-06T15:01:39.494Z,19.57
2023-01-06T15:04:06.596Z,14.23
2023-01-06T15:06:35.645Z,12.53
2023-01-06T15:09:34.343Z,14.23
2023-01-06T15:12:20.763Z,12.97
2023-01-06T15:14:47.522Z,13.13
2023-01-06T15:17:14.287Z,13.83
2023-01-06T15:19:45.708Z,13.53
2023-01-06T15:22:16.229Z,12.87
2023-01-06T15:24:43.216Z,18.90
2023-01-06T15:27:12.694Z,18.00
2023-01-06T15:29:39.548Z,15.90
2023-01-06T15:32:07.275Z,16.87
2023-01-06T15:34:39.670Z,21.13
2023-01-06T15:37:08.372Z,22.40
2023-01-06T15:39:35.363Z,20.80
2023-01-06T15:42:04.347Z,19.57
2023-01-06T15:44:37.967Z,23.03
2023-01-06T15:47:13.037Z,20.57
2023-01-06T15:49:56.691Z,22.73
2023-01-06T15:52:32.648Z,21.60
2023-01-06T15:55:00.988Z,22.33
2023-01-06T15:57:28.828Z,25.20
2023-01-06T16:00:01.100Z,23.70
2023-01-06T16:02:30.102Z,22.13
2023-01-06T16:04:59.335Z,23.97
2023-01-06T16:07:39.345Z,19.73
2023-01-06T16:10:34.141Z,21.10
2023-01-06T16:13:19.098Z,20.90
2023-01-06T16:15:56.790Z,20.80
2023-01-06T16:18:36.744Z,21.83
2023-01-06T16:21:26.031Z,23.93
2023-01-06T16:23:57.099Z,21.80
2023-01-06T16:26:31.414Z,20.60
2023-01-06T16:29:02.683Z,18.23
2023-01-06T16:31:31.493Z,19.40
2023-01-06T16:34:17.182Z,21.67
2023-01-06T16:36:44.439Z,19.80
2023-01-06T16:39:11.215Z,20.27
2023-01-06T16:41:38.231Z,22.03
2023-01-06T16:44:05.053Z,23.57
2023-01-06T16:46:31.860Z,24.23
2023-01-06T16:49:01.778Z,22.43
2023-01-06T16:51:30.997Z,26.20
2023-01-06T16:53:59.872Z,25.57
2023-01-06T16:56:28.732Z,25.87
2023-01-06T16:59:00.037Z,28.63
2023-01-06T17:01:28.064Z,28.27
2023-01-06T17:03:58.517Z,30.87
2023-01-06T17:06:26.798Z,30.57
2023-01-06T17:08:58.851Z,31.20
2023-01-06T17:11:27.114Z,30.70
2023-01-06T17:14:03.661Z,33.17
2023-01-06T17:16:38.245Z,32.60
2023-01-06T17:19:26.646Z,33.33
2023-01-06T17:22:12.757Z,34.30
2023-01-06T17:24:42.138Z,35.80
2023-01-06T17:27:17.851Z,42.53
2023-01-06T17:29:49.218Z,44.13
2023-01-06T17:32:36.097Z,40.13
2023-01-06T17:35:02.925Z,41.53
2023-01-06T17:37:30.143Z,43.87
2023-01-06T17:39:59.456Z,44.37
2023-01-06T17:42:29.126Z,40.87
2023-01-06T17:44:56.853Z,40.23
2023-01-06T17:47:23.630Z,38.03
2023-01-06T17:49:57.924Z,41.40
2023-01-06T17:52:38.028Z,42.67
2023-01-06T17:55:43.092Z,39.90
2023-01-06T17:58:16.183Z,43.30
2023-01-06T18:00:43.127Z,42.03
2023-01-06T18:03:19.242Z,38.07
2023-01-06T18:05:46.041Z,40.13
2023-01-06T18:08:15.094Z,44.40
2023-01-06T18:10:46.057Z,36.73
2023-01-06T18:13:19.624Z,39.73
2023-01-06T18:15:50.151Z,40.50
2023-01-06T18:18:25.671Z,38.83
2023-01-06T18:21:04.468Z,37.50
2023-01-06T18:23:36.515Z,40.10
2023-01-06T18:26:11.818Z,37.97
2023-01-06T18:28:38.617Z,43.30
2023-01-06T18:31:14.575Z,37.70
2023-01-06T18:33:41.391Z,39.43
2023-01-06T18:36:14.440Z,37.90
2023-01-06T18:38:41.531Z,39.90
2023-01-06T18:41:15.039Z,38.13
2023-01-06T18:43:45.124Z,39.43
2023-01-06T18:46:14.661Z,38.97
2023-01-06T18:48:41.454Z,39.10
2023-01-06T18:51:17.547Z,39.93
2023-01-06T18:53:47.361Z,38.70
2023-01-06T18:56:21.072Z,38.90
2023-01-06T18:58:54.684Z,43.53
2023-01-06T19:01:35.334Z,39.10
2023-01-06T19:04:06.071Z,40.43
2023-01-06T19:06:41.726Z,36.10
2023-01-06T19:09:31.362Z,35.60
2023-01-06T19:12:08.329Z,39.07
2023-01-06T19:14:44.848Z,35.73
2023-01-06T19:17:37.332Z,36.80
2023-01-06T19:20:25.775Z,36.30
2023-01-06T19:22:55.260Z,35.03
2023-01-06T19:25:37.651Z,35.50
2023-01-06T19:28:22.962Z,37.23
2023-01-06T19:30:52.610Z,37.37
2023-01-06T19:33:33.549Z,35.07
2023-01-06T19:36:21.374Z,34.13
2023-01-06T19:38:50.407Z,34.70
2023-01-06T19:41:29.946Z,33.50
2023-01-06T19:44:06.043Z,31.37
2023-01-06T19:46:52.640Z,35.07
2023-01-06T19:49:23.819Z,33.60
2023-01-06T19:51:54.559Z,33.87
2023-01-06T19:54:27.921Z,32.43
2023-01-06T19:56:59.898Z,31.47
2023-01-06T19:59:33.991Z,32.60
2023-01-06T20:02:10.001Z,30.30
2023-01-06T20:04:36.955Z,30.83
2023-01-06T20:07:03.922Z,30.93
2023-01-06T20:09:33.246Z,31.90
2023-01-06T20:12:03.125Z,34.87
2023-01-06T20:14:30.319Z,28.80
2023-01-06T20:16:57.749Z,35.53
2023-01-06T20:19:24.581Z,30.97
2023-01-06T20:21:51.350Z,30.93
2023-01-06T20:24:18.116Z,28.80
2023-01-06T20:26:44.905Z,33.37
2023-01-06T20:29:11.684Z,28.07
2023-01-06T20:31:38.575Z,28.57
2023-01-06T20:34:05.439Z,28.43
2023-01-06T20:36:32.226Z,26.93
2023-01-06T20:38:59.113Z,24.47
2023-01-06T20:41:25.865Z,28.90
2023-01-06T20:43:52.711Z,24.70
2023-01-06T20:46:19.582Z,26.30
2023-01-06T20:48:47.868Z,27.80
2023-01-06T20:51:14.749Z,27.60
2023-01-06T20:53:43.850Z,27.47
2023-01-06T20:56:10.635Z,28.67
2023-01-06T20:58:37.472Z,28.93
2023-01-06T21:01:04.739Z,25.63
2023-01-06T21:03:31.539Z,26.90
2023-01-06T21:05:58.373Z,25.23
2023-01-06T21:08:25.187Z,24.37
2023-01-06T21:10:51.946Z,28.00
2023-01-06T21:13:18.771Z,28.77
2023-01-06T21:15:45.539Z,27.87
2023-01-06T21:18:14.795Z,26.53
2023-01-06T21:20:43.733Z,27.03
2023-01-06T21:23:12.947Z,28.60
2023-01-06T21:25:39.786Z,24.97
2023-01-06T21:28:06.622Z,26.20
2023-01-06T21:30:33.482Z,28.17
2023-01-06T21:33:00.359Z,28.47
2023-01-06T21:35:27.151Z,27.87
2023-01-06T21:37:53.969Z,30.33
2023-01-06T21:40:20.761Z,26.73
2023-01-06T21:43:08.488Z,28.17
2023-01-06T21:45:47.381Z,30.57
2023-01-06T21:48:14.765Z,28.80
2023-01-06T21:50:42.975Z,28.50
2023-01-06T21:53:10.392Z,26.63
2023-01-06T21:55:37.272Z,28.23
2023-01-06T21:58:06.327Z,29.33
2023-01-06T22:00:35.281Z,30.07
2023-01-06T22:03:02.238Z,29.13
2023-01-06T22:05:29.204Z,27.40
2023-01-06T22:07:55.980Z,31.00
2023-01-06T22:10:26.393Z,30.47
2023-01-06T22:12:55.791Z,31.70
2023-01-06T22:15:22.618Z,30.83
2023-01-06T22:17:53.954Z,32.00
2023-01-06T22:20:20.792Z,29.37
2023-01-06T22:22:47.709Z,30.53
2023-01-06T22:25:17.402Z,31.13
2023-01-06T22:27:44.239Z,33.07
2023-01-06T22:30:11.384Z,30.73
2023-01-06T22:32:51.076Z,30.17
2023-01-06T22:35:20.366Z,30.97
2023-01-06T22:37:49.383Z,30.93
2023-01-06T22:40:16.837Z,30.50
2023-01-06T22:42:43.737Z,34.33
2023-01-06T22:45:10.838Z,31.73
2023-01-06T22:47:37.771Z,32.60
2023-01-06T22:50:05.752Z,33.60
2023-01-06T22:52:34.652Z,37.83
2023-01-06T22:55:04.423Z,30.33
2023-01-06T22:57:31.211Z,32.40
2023-01-06T23:00:03.375Z,31.17
2023-01-06T23:02:30.282Z,29.90
2023-01-06T23:04:57.127Z,29.77
2023-01-06T23:07:28.390Z,31.57
2023-01-06T23:09:55.334Z,30.73
2023-01-06T23:12:22.087Z,32.30
2023-01-06T23:14:51.148Z,29.17
2023-01-06T23:17:17.920Z,29.90
2023-01-06T23:19:44.675Z,30.83
2023-01-06T23:22:13.557Z,29.87
2023-01-06T23:24:40.398Z,31.23
2023-01-06T23:27:07.312Z,32.30
2023-01-06T23:29:36.529Z,27.97
2023-01-06T23:32:05.572Z,31.97
2023-01-06T23:34:34.537Z,31.87
2023-01-06T23:37:03.569Z,30.00
2023-01-06T23:39:30.312Z,33.37
2023-01-06T23:41:59.233Z,32.50
2023-01-06T23:44:28.118Z,33.17
2023-01-06T23:46:54.889Z,32.47
2023-01-06T23:49:21.665Z,35.47
2023-01-06T23:51:48.606Z,34.03
2023-01-06T23:54:17.511Z,33.97
2023-01-06T23:56:44.295Z,35.30
2023-01-06T23:59:14.085Z,31.50
